Latest Weather Observations for Cressy

IDT60801

Issued at 11:35 pm EST Tuesday 30 September 2014 (issued every 30 minutes, with the page automatically refreshed every 10 minutes)

About weather observations | Map of weather stations | Latest weather observations for TAS | Other Formats
Station Details ID: 091306 Name: CRESSY RESEARCH STATION Lat: -41.73 Lon: 147.08 Height: 148.0 m
Data from the previous 72 hours. | See also: Recent months at Cressy
Date/Time
EST
Temp
°C
App
Temp
°C
Dew
Point
Rel
Hum
%
Delta-T
°C
Wind Press
QNH
hPa
Press
MSL
hPa
Rain
since 9 am
mm
Dir
 
Spd
km/h
Gust
km/h
Spd
kts
Gust
kts
30/11:30pm 7.9 0.4 -1.1 53 3.5 W 28 41 15 22 - - 5.2
30/11:23pm 8.0 0.6 -1.0 53 3.5 W 28 37 15 20 - - 5.2
30/11:00pm 6.7 3.2 -1.2 57 3.0 ESE 7 15 4 8 - - 5.2
30/10:30pm 7.6 3.3 -1.4 53 3.4 S 11 22 6 12 - - 5.2
30/10:00pm 8.2 1.5 -0.8 53 3.5 W 24 33 13 18 - - 5.2
30/09:30pm 8.5 1.5 -0.3 54 3.5 W 26 35 14 19 - - 5.2
30/09:00pm 8.4 1.5 0.4 57 3.2 W 26 41 14 22 - - 5.2
30/08:30pm 8.4 0.7 0.1 56 3.3 W 30 41 16 22 - - 5.2
30/08:00pm 8.0 0.1 1.0 61 2.8 W 32 43 17 23 - - 5.2
30/07:30pm 8.7 0.2 1.1 59 3.1 WNW 35 48 19 26 - - 5.2
30/07:12pm 9.5 2.5 1.7 58 3.3 W 28 50 15 27 - - 5.2
30/07:00pm 9.8 5.9 3.3 64 2.8 WSW 13 20 7 11 - - 5.2
30/06:30pm 10.6 4.5 2.9 59 3.4 WSW 24 41 13 22 - - 5.2
30/06:00pm 10.1 5.8 7.9 86 1.1 WNW 20 35 11 19 - - 5.2
30/05:30pm 10.7 5.2 9.0 89 0.8 NW 28 39 15 21 - - 5.2
30/05:00pm 11.2 5.3 10.3 94 0.5 NNW 32 46 17 25 - - 5.2
30/04:30pm 11.3 6.7 11.0 98 0.2 N 26 33 14 18 - - 5.2
30/04:00pm 11.5 6.9 11.2 98 0.2 N 26 35 14 19 - - 5.2
30/03:30pm 11.5 4.9 11.2 98 0.2 NNW 37 48 20 26 - - 5.0
30/03:00pm 11.7 5.9 11.4 98 0.2 NNW 33 46 18 25 - - 5.0
30/02:30pm 11.3 3.8 11.0 98 0.2 NNW 41 56 22 30 - - 5.0
30/02:00pm 10.7 3.5 10.4 98 0.2 NNW 39 48 21 26 - - 4.6
30/01:57pm 10.7 2.7 10.4 98 0.2 NNW 43 48 23 26 - - 4.4
30/01:47pm 11.2 4.5 10.9 98 0.2 WNW 37 56 20 30 - - 3.8
30/01:41pm 12.0 6.3 11.7 98 0.2 NNW 33 50 18 27 - - 2.8
30/01:30pm 11.9 7.1 11.6 98 0.2 NNW 28 32 15 17 - - 1.8
30/01:00pm 12.6 4.1 12.1 97 0.3 NNW 48 63 26 34 - - 0.2
30/12:31pm 13.0 3.9 12.5 97 0.3 NNW 52 70 28 38 - - 0.0
30/12:30pm 13.0 3.5 12.5 97 0.3 NNW 54 70 29 38 - - 0.0
30/12:00pm 13.2 4.5 12.7 97 0.3 N 50 74 27 40 - - 0.0
30/11:37am 13.0 5.0 12.5 97 0.3 NNW 46 65 25 35 - - 0.0
30/11:30am 12.8 4.0 12.3 97 0.3 NNW 50 67 27 36 - - 0.0
30/11:09am 13.2 5.6 12.4 95 0.4 NNW 44 63 24 34 - - 0.0
30/11:00am 13.4 5.9 12.6 95 0.4 NNW 44 61 24 33 - - 0.0
30/10:30am 13.2 5.8 12.4 95 0.4 NNW 43 61 23 33 - - 0.0
30/10:00am 12.7 4.9 11.8 94 0.5 NNW 44 65 24 35 - - 0.0
30/09:50am 12.8 5.5 11.5 92 0.7 N 41 59 22 32 - - 0.0
30/09:30am 13.0 3.7 10.5 85 1.3 NNW 50 65 27 35 - - 0.0
30/09:00am 12.4 3.9 10.6 89 0.9 NNW 46 65 25 35 - - 0.0
30/08:31am 12.8 5.4 11.2 90 0.8 NNW 41 59 22 32 - - 0.0
30/08:30am 12.6 5.7 11.5 93 0.6 NNW 39 56 21 30 - - 0.0
30/08:20am 12.1 3.9 11.6 97 0.3 NNW 46 65 25 35 - - 0.0
30/08:00am 13.1 6.7 10.8 86 1.2 NNW 35 48 19 26 - - 0.0
30/07:30am 12.4 6.1 11.1 92 0.7 NNW 35 50 19 27 - - 0.0
30/07:25am 12.6 6.9 11.2 91 0.7 N 32 50 17 27 - - 0.0
30/07:00am 11.9 6.8 10.5 91 0.7 N 28 43 15 23 - - 0.0
30/06:30am 11.6 6.9 10.8 95 0.4 N 26 41 14 22 - - 0.0
30/06:00am 11.4 6.2 10.3 93 0.6 N 28 35 15 19 - - 0.0
30/05:30am 11.3 6.1 10.2 93 0.6 NNW 28 35 15 19 - - 0.0
30/05:00am 11.3 7.0 10.8 97 0.3 NNW 24 30 13 16 - - 0.0
30/04:30am 11.3 5.3 10.8 97 0.3 NNW 33 44 18 24 - - 0.0
30/04:00am 11.5 6.9 10.9 96 0.3 NNW 26 32 14 17 - - 0.0
30/03:30am 11.6 5.7 10.3 92 0.7 NNW 32 39 17 21 - - 0.0
30/03:00am 11.5 7.6 10.7 95 0.4 NNW 22 32 12 17 - - 0.0
30/02:30am 11.5 6.7 10.2 92 0.7 N 26 35 14 19 - - 0.0
30/02:00am 11.9 6.0 10.5 91 0.7 N 32 43 17 23 - - 0.0
30/01:30am 11.9 6.0 10.3 90 0.8 N 32 39 17 21 - - 0.0
30/01:00am 11.7 6.5 10.4 92 0.7 N 28 37 15 20 - - 0.0
30/12:30am 11.4 4.8 10.0 91 0.7 N 35 46 19 25 - - 0.0
30/12:00am 11.0 4.7 8.9 87 1.0 N 32 48 17 26 - - 0.0
 
Date/Time
EST
Temp
°C
App
Temp
°C
Dew
Point
Rel
Hum
%
Delta-T
°C
Wind Press
QNH
hPa
Press
MSL
hPa
Rain
since 9 am
mm
Dir
 
Spd
km/h
Gust
km/h
Spd
kts
Gust
kts
29/11:53pm 11.1 5.1 8.8 86 1.1 N 30 48 16 26 - - 0.0
29/11:30pm 10.9 4.7 8.0 82 1.4 N 30 46 16 25 - - 0.0
29/11:00pm 10.8 5.3 7.5 80 1.6 N 26 35 14 19 - - 0.0
29/10:30pm 11.3 6.0 7.0 75 2.1 N 24 33 13 18 - - 0.0
29/10:00pm 12.0 6.0 6.9 71 2.5 N 28 37 15 20 - - 0.0
29/09:30pm 11.8 7.0 7.3 74 2.2 NW 22 35 12 19 - - 0.0
29/09:00pm 11.0 5.0 7.1 77 1.9 NW 28 35 15 19 - - 0.0
29/08:30pm 11.1 4.3 7.6 79 1.7 NNW 33 44 18 24 - - 0.0
29/08:00pm 10.8 4.2 7.9 82 1.4 N 32 41 17 22 - - 0.0
29/07:30pm 10.7 3.9 7.8 82 1.4 NNW 33 41 18 22 - - 0.0
29/07:00pm 10.9 4.2 8.0 82 1.4 N 33 43 18 23 - - 0.0
29/06:30pm 11.4 4.2 7.5 77 1.9 NNW 35 44 19 24 - - 0.0
29/06:00pm 12.1 4.9 7.6 74 2.2 NNW 35 44 19 24 - - 0.0
29/05:30pm 13.2 5.5 7.2 67 2.9 NNW 37 50 20 27 - - 0.0
29/05:00pm 13.9 5.1 7.2 64 3.3 NNW 43 54 23 29 - - 0.0
29/04:30pm 14.5 5.7 7.3 62 3.6 NNW 43 54 23 29 - - 0.0
29/04:00pm 14.8 6.1 7.8 63 3.5 NNW 43 57 23 31 - - 0.0
29/03:30pm 15.4 6.8 8.2 62 3.7 NNW 43 57 23 31 - - 0.0
29/03:00pm 15.0 7.3 8.7 66 3.2 NNW 39 54 21 29 - - 0.0
29/02:41pm 15.2 6.3 7.5 60 3.8 NNW 44 63 24 34 - - 0.0
29/02:30pm 15.9 7.4 8.4 61 3.8 NNW 43 57 23 31 - - 0.0
29/02:00pm 15.4 7.0 7.4 59 4.0 NNW 41 61 22 33 - - 0.0
29/01:52pm 16.0 7.6 7.5 57 4.3 NNW 41 61 22 33 - - 0.0
29/01:30pm 15.9 6.9 6.3 53 4.7 NNW 43 56 23 30 - - 0.0
29/01:00pm 16.1 8.1 7.6 57 4.3 NNW 39 50 21 27 - - 0.0
29/12:30pm 15.6 6.7 6.9 56 4.3 NW 43 57 23 31 - - 0.0
29/12:28pm 15.4 7.1 5.9 53 4.6 NW 39 57 21 31 - - 0.0
29/12:00pm 15.2 6.3 5.1 51 4.8 NNW 41 50 22 27 - - 0.0
29/11:30am 14.9 7.0 6.0 55 4.3 NNW 37 52 20 28 - - 0.0
29/11:00am 14.6 5.0 4.6 51 4.7 NNW 44 54 24 29 - - 0.0
29/10:30am 14.3 5.5 5.7 56 4.1 NNW 41 54 22 29 - - 0.0
29/10:04am 13.8 5.8 5.9 59 3.8 NW 37 57 20 31 - - 0.0
29/10:00am 13.8 5.9 6.2 60 3.7 NNW 37 48 20 26 - - 0.0
29/09:30am 13.4 5.5 8.0 70 2.7 NNW 39 52 21 28 - - 0.0
29/09:00am 12.6 4.9 7.1 69 2.7 NNW 37 48 20 26 - - 3.8
29/08:30am 12.1 4.0 7.0 71 2.5 NNW 39 50 21 27 - - 3.8
29/08:00am 11.5 4.6 7.2 75 2.1 NNW 33 44 18 24 - - 3.8
29/07:30am 10.9 4.8 6.5 74 2.1 NNW 28 37 15 20 - - 3.8
29/07:00am 10.2 4.1 6.4 77 1.8 NNW 28 39 15 21 - - 3.8
29/06:30am 9.2 4.2 6.3 82 1.3 N 22 28 12 15 - - 3.8
29/06:00am 9.2 5.3 7.3 88 0.9 N 17 28 9 15 - - 3.8
29/05:30am 9.2 5.2 8.4 95 0.4 NNW 19 24 10 13 - - 3.8
29/05:00am 10.2 6.0 9.7 97 0.3 NNW 22 35 12 19 - - 3.8
29/04:30am 10.1 6.3 9.8 98 0.2 NW 20 26 11 14 - - 3.8
29/04:00am 10.6 4.7 10.3 98 0.2 NNW 32 41 17 22 - - 3.8
29/03:30am 10.8 3.6 10.5 98 0.2 NNW 39 52 21 28 - - 3.8
29/03:00am 11.0 4.9 10.5 97 0.3 N 33 44 18 24 - - 2.6
29/02:30am 10.9 5.0 10.4 97 0.3 N 32 43 17 23 - - 2.6
29/02:00am 10.8 4.4 9.2 90 0.8 NNW 33 41 18 22 - - 2.6
29/01:30am 11.2 4.2 9.8 91 0.7 NNW 37 46 20 25 - - 2.6
29/01:00am 11.5 5.2 11.0 97 0.3 NNW 35 46 19 25 - - 2.6
29/12:30am 12.2 7.1 11.9 98 0.2 NNW 30 41 16 22 - - 2.6
29/12:00am 12.9 7.4 12.6 98 0.2 NNW 33 43 18 23 - - 2.6
 
Date/Time
EST
Temp
°C
App
Temp
°C
Dew
Point
Rel
Hum
%
Delta-T
°C
Wind Press
QNH
hPa
Press
MSL
hPa
Rain
since 9 am
mm
Dir
 
Spd
km/h
Gust
km/h
Spd
kts
Gust
kts
28/11:30pm 13.1 7.7 12.8 98 0.2 NNW 33 41 18 22 - - 2.6
28/11:00pm 13.1 8.7 12.8 98 0.2 NNW 28 37 15 20 - - 2.6
28/10:30pm 13.3 10.1 13.0 98 0.2 NNW 22 32 12 17 - - 2.6
28/10:00pm 13.4 11.9 13.1 98 0.2 WNW 13 17 7 9 - - 2.4
28/09:30pm 13.6 12.2 13.3 98 0.2 WNW 13 19 7 10 - - 2.2
28/09:00pm 14.7 12.1 13.1 90 0.9 N 19 28 10 15 - - 0.8
28/08:30pm 14.8 12.4 12.8 88 1.1 N 17 24 9 13 - - 0.6
28/08:00pm 15.5 12.2 12.8 84 1.5 N 22 30 12 16 - - 0.6
28/07:30pm 15.4 12.2 13.1 86 1.3 NNW 22 28 12 15 - - 0.6
28/07:00pm 15.5 11.9 13.0 85 1.4 NNW 24 30 13 16 - - 0.6
28/06:30pm 14.1 12.2 13.0 93 0.6 NNW 15 20 8 11 - - 0.6
28/06:00pm 14.9 12.2 12.8 87 1.2 N 19 24 10 13 - - 0.6
28/05:30pm 15.4 13.6 13.4 88 1.1 NW 15 20 8 11 - - 0.6
28/05:00pm 14.8 13.3 14.3 97 0.3 NNW 15 19 8 10 - - 0.6
28/04:30pm 15.8 14.7 14.3 91 0.9 N 13 17 7 9 - - 0.6
28/04:00pm 15.7 13.2 13.4 86 1.3 N 19 30 10 16 - - 0.6
28/03:30pm 15.9 14.1 13.4 85 1.4 NNW 15 17 8 9 - - 0.0
28/03:00pm 17.0 14.4 11.9 72 2.8 NW 17 24 9 13 - - 0.0
28/02:30pm 17.7 13.8 12.2 70 3.1 NW 24 33 13 18 - - 0.0
28/02:00pm 18.1 13.9 12.5 70 3.1 NNW 26 33 14 18 - - 0.0
28/01:30pm 17.8 12.8 12.3 70 3.1 NW 30 43 16 23 - - 0.0
28/01:00pm 18.0 13.0 12.2 69 3.2 NW 30 43 16 23 - - 0.0
28/12:30pm 18.0 12.0 12.2 69 3.2 NNW 35 50 19 27 - - 0.0
28/12:00pm 18.2 13.1 13.1 72 2.9 NW 32 43 17 23 - - 0.0
28/11:30am 18.1 11.6 13.0 72 2.9 NNW 39 54 21 29 - - 0.0
28/11:00am 18.0 10.7 12.9 72 2.9 NNW 43 56 23 30 - - 0.0
28/10:30am 17.4 12.2 13.3 77 2.3 NNW 33 48 18 26 - - 0.0
28/10:00am 15.8 11.3 13.8 88 1.1 NNW 30 39 16 21 - - 0.0
28/09:30am 15.7 11.2 13.9 89 1.0 NNW 30 39 16 21 - - 0.0
28/09:00am 14.9 12.2 13.4 91 0.8 NNW 20 26 11 14 - - 0.0
28/08:30am 14.5 12.3 13.4 93 0.6 NW 17 22 9 12 - - 0.0
28/08:00am 13.4 11.1 12.9 97 0.3 NW 17 22 9 12 - - 0.0
28/07:30am 13.3 10.1 13.0 98 0.2 NNW 22 30 12 16 - - 0.0
28/07:00am 12.5 9.6 12.2 98 0.2 N 19 28 10 15 - - 0.0
28/06:30am 12.4 9.8 12.1 98 0.2 N 17 26 9 14 - - 0.0
28/06:00am 12.3 8.0 12.0 98 0.2 N 26 33 14 18 - - 0.0
28/05:30am 12.1 7.3 11.8 98 0.2 N 28 37 15 20 - - 0.0
28/05:00am 12.0 8.4 11.7 98 0.2 N 22 30 12 16 - - 0.0
28/04:30am 11.6 8.8 11.3 98 0.2 N 17 22 9 12 - - 0.0
28/04:00am 11.5 8.7 11.2 98 0.2 N 17 22 9 12 - - 0.0
28/03:30am 11.6 8.8 11.3 98 0.2 N 17 22 9 12 - - 0.0
28/03:00am 11.7 8.3 11.4 98 0.2 N 20 24 11 13 - - 0.0
28/02:30am 11.6 7.8 11.3 98 0.2 NNW 22 28 12 15 - - 0.0
28/02:00am 11.5 7.3 11.2 98 0.2 NNW 24 32 13 17 - - 0.0
28/01:30am 11.5 7.7 11.2 98 0.2 NNW 22 28 12 15 - - 0.0
28/01:00am 11.4 6.1 11.1 98 0.2 NNW 30 35 16 19 - - 0.0
28/12:30am 11.5 8.1 11.2 98 0.2 N 20 30 11 16 - - 0.0
28/12:00am 11.3 8.0 11.0 98 0.2 N 19 24 10 13 - - 0.0

Other Formats:

Comma delimited format used in spreadsheet applications
http://www.bom.gov.au/fwo/IDT60801/IDT60801.95969.axf

JavaScript Object Notation format (JSON) in row-major order
http://www.bom.gov.au/fwo/IDT60801/IDT60801.95969.json